sensor_id;sensor_type;location;lat;lon;timestamp;temperature;humidity
5196;DHT22;2617;51.006;12.436;2022-08-11T00:01:52;14.50;99.90
5196;DHT22;2617;51.006;12.436;2022-08-11T00:06:54;14.40;99.90
5196;DHT22;2617;51.006;12.436;2022-08-11T00:11:57;14.40;99.90
5196;DHT22;2617;51.006;12.436;2022-08-11T00:17:01;14.20;99.90
5196;DHT22;2617;51.006;12.436;2022-08-11T00:22:07;14.20;99.90
5196;DHT22;2617;51.006;12.436;2022-08-11T00:27:10;14.20;99.90
5196;DHT22;2617;51.006;12.436;2022-08-11T00:32:12;14.20;99.90
5196;DHT22;2617;51.006;12.436;2022-08-11T00:37:18;14.10;99.90
5196;DHT22;2617;51.006;12.436;2022-08-11T00:42:42;14.10;99.90
5196;DHT22;2617;51.006;12.436;2022-08-11T00:58:42;14.00;99.90
5196;DHT22;2617;51.006;12.436;2022-08-11T01:20:13;13.90;99.90
5196;DHT22;2617;51.006;12.436;2022-08-11T01:42:03;13.40;99.90
5196;DHT22;2617;51.006;12.436;2022-08-11T01:47:44;13.40;99.90
5196;DHT22;2617;51.006;12.436;2022-08-11T01:53:02;13.40;99.90
5196;DHT22;2617;51.006;12.436;2022-08-11T02:08:52;13.30;99.90
5196;DHT22;2617;51.006;12.436;2022-08-11T02:13:59;13.30;99.90
5196;DHT22;2617;51.006;12.436;2022-08-11T02:19:11;13.10;99.90
5196;DHT22;2617;51.006;12.436;2022-08-11T02:24:27;13.10;99.90
5196;DHT22;2617;51.006;12.436;2022-08-11T02:35:03;12.90;99.90
5196;DHT22;2617;51.006;12.436;2022-08-11T02:40:09;12.80;99.90
5196;DHT22;2617;51.006;12.436;2022-08-11T02:45:30;12.80;99.90
5196;DHT22;2617;51.006;12.436;2022-08-11T02:50:21;12.80;99.90
5196;DHT22;2617;51.006;12.436;2022-08-11T02:55:41;12.70;99.90
5196;DHT22;2617;51.006;12.436;2022-08-11T03:00:52;12.70;99.90
5196;DHT22;2617;51.006;12.436;2022-08-11T03:05:57;12.60;99.90
5196;DHT22;2617;51.006;12.436;2022-08-11T03:11:04;12.50;99.90
5196;DHT22;2617;51.006;12.436;2022-08-11T03:16:32;12.40;99.90
5196;DHT22;2617;51.006;12.436;2022-08-11T03:21:52;12.40;99.90
5196;DHT22;2617;51.006;12.436;2022-08-11T03:27:03;12.40;99.90
5196;DHT22;2617;51.006;12.436;2022-08-11T03:32:19;12.40;99.90
5196;DHT22;2617;51.006;12.436;2022-08-11T03:42:55;12.40;99.90
5196;DHT22;2617;51.006;12.436;2022-08-11T03:48:02;12.30;99.90
5196;DHT22;2617;51.006;12.436;2022-08-11T03:59:15;12.30;99.90
5196;DHT22;2617;51.006;12.436;2022-08-11T04:04:46;12.40;99.90
5196;DHT22;2617;51.006;12.436;2022-08-11T04:09:55;12.40;99.90
5196;DHT22;2617;51.006;12.436;2022-08-11T04:15:11;12.60;99.90
5196;DHT22;2617;51.006;12.436;2022-08-11T04:31:33;16.60;99.90
5196;DHT22;2617;51.006;12.436;2022-08-11T04:36:51;18.40;99.60
5196;DHT22;2617;51.006;12.436;2022-08-11T04:42:05;18.30;99.50
5196;DHT22;2617;51.006;12.436;2022-08-11T04:53:14;21.10;92.10
5196;DHT22;2617;51.006;12.436;2022-08-11T05:15:48;24.60;81.00
5196;DHT22;2617;51.006;12.436;2022-08-11T05:21:02;25.70;76.90
5196;DHT22;2617;51.006;12.436;2022-08-11T05:26:08;25.90;76.50
5196;DHT22;2617;51.006;12.436;2022-08-11T05:31:17;25.70;76.60
5196;DHT22;2617;51.006;12.436;2022-08-11T05:36:26;25.60;76.50
5196;DHT22;2617;51.006;12.436;2022-08-11T05:41:29;25.00;77.80
5196;DHT22;2617;51.006;12.436;2022-08-11T05:46:40;24.10;79.50
5196;DHT22;2617;51.006;12.436;2022-08-11T05:51:48;23.00;82.80
5196;DHT22;2617;51.006;12.436;2022-08-11T05:56:57;22.10;85.80
5196;DHT22;2617;51.006;12.436;2022-08-11T06:02:00;20.70;91.90
5196;DHT22;2617;51.006;12.436;2022-08-11T06:07:05;20.60;91.90
5196;DHT22;2617;51.006;12.436;2022-08-11T06:12:07;20.50;92.30
5196;DHT22;2617;51.006;12.436;2022-08-11T06:17:09;20.40;93.30
5196;DHT22;2617;51.006;12.436;2022-08-11T06:22:12;20.60;93.40
5196;DHT22;2617;51.006;12.436;2022-08-11T06:27:17;20.60;93.50
5196;DHT22;2617;51.006;12.436;2022-08-11T06:32:17;21.00;92.80
5196;DHT22;2617;51.006;12.436;2022-08-11T06:42:54;22.00;91.10
5196;DHT22;2617;51.006;12.436;2022-08-11T06:47:58;22.00;91.10
5196;DHT22;2617;51.006;12.436;2022-08-11T06:53:02;22.20;90.40
5196;DHT22;2617;51.006;12.436;2022-08-11T06:58:03;22.40;90.10
5196;DHT22;2617;51.006;12.436;2022-08-11T07:03:12;22.70;90.20
5196;DHT22;2617;51.006;12.436;2022-08-11T07:08:49;23.00;87.70
5196;DHT22;2617;51.006;12.436;2022-08-11T07:14:07;23.30;87.20
5196;DHT22;2617;51.006;12.436;2022-08-11T07:19:19;24.00;85.10
5196;DHT22;2617;51.006;12.436;2022-08-11T07:24:27;23.90;85.00
5196;DHT22;2617;51.006;12.436;2022-08-11T07:29:33;24.10;83.10
5196;DHT22;2617;51.006;12.436;2022-08-11T07:34:37;24.00;85.60
5196;DHT22;2617;51.006;12.436;2022-08-11T07:39:40;24.00;85.60
5196;DHT22;2617;51.006;12.436;2022-08-11T07:44:41;23.90;84.50
5196;DHT22;2617;51.006;12.436;2022-08-11T07:49:49;24.20;83.90
5196;DHT22;2617;51.006;12.436;2022-08-11T07:54:59;24.10;82.70
5196;DHT22;2617;51.006;12.436;2022-08-11T08:00:04;23.70;83.50
5196;DHT22;2617;51.006;12.436;2022-08-11T08:05:13;23.80;84.90
5196;DHT22;2617;51.006;12.436;2022-08-11T08:10:21;24.20;82.40
5196;DHT22;2617;51.006;12.436;2022-08-11T08:15:30;25.20;79.30
5196;DHT22;2617;51.006;12.436;2022-08-11T08:20:43;25.20;78.20
5196;DHT22;2617;51.006;12.436;2022-08-11T08:25:46;25.20;78.20
5196;DHT22;2617;51.006;12.436;2022-08-11T08:30:49;24.80;79.90
5196;DHT22;2617;51.006;12.436;2022-08-11T08:35:53;24.90;79.00
5196;DHT22;2617;51.006;12.436;2022-08-11T08:40:54;25.00;78.40
5196;DHT22;2617;51.006;12.436;2022-08-11T08:45:56;25.30;78.80
5196;DHT22;2617;51.006;12.436;2022-08-11T08:51:02;25.70;78.30
5196;DHT22;2617;51.006;12.436;2022-08-11T08:56:09;25.80;74.60
5196;DHT22;2617;51.006;12.436;2022-08-11T09:01:11;26.20;72.00
5196;DHT22;2617;51.006;12.436;2022-08-11T09:06:14;26.30;70.10
5196;DHT22;2617;51.006;12.436;2022-08-11T09:11:17;26.30;70.10
5196;DHT22;2617;51.006;12.436;2022-08-11T09:16:25;25.90;70.90
5196;DHT22;2617;51.006;12.436;2022-08-11T09:21:27;25.90;72.70
5196;DHT22;2617;51.006;12.436;2022-08-11T09:26:29;26.00;71.20
5196;DHT22;2617;51.006;12.436;2022-08-11T09:31:40;25.80;72.30
5196;DHT22;2617;51.006;12.436;2022-08-11T09:36:42;25.80;72.30
5196;DHT22;2617;51.006;12.436;2022-08-11T09:41:50;25.90;71.00
5196;DHT22;2617;51.006;12.436;2022-08-11T09:46:52;26.00;68.30
5196;DHT22;2617;51.006;12.436;2022-08-11T09:51:55;26.40;66.90
5196;DHT22;2617;51.006;12.436;2022-08-11T09:56:57;26.60;66.60
5196;DHT22;2617;51.006;12.436;2022-08-11T10:02:06;27.10;64.80
5196;DHT22;2617;51.006;12.436;2022-08-11T10:07:09;27.50;65.00
5196;DHT22;2617;51.006;12.436;2022-08-11T10:12:13;27.60;61.10
5196;DHT22;2617;51.006;12.436;2022-08-11T10:17:16;26.70;64.00
5196;DHT22;2617;51.006;12.436;2022-08-11T10:22:19;26.80;64.20
5196;DHT22;2617;51.006;12.436;2022-08-11T10:27:27;26.80;64.20
5196;DHT22;2617;51.006;12.436;2022-08-11T10:32:29;27.10;62.80
5196;DHT22;2617;51.006;12.436;2022-08-11T10:37:37;27.70;61.50
5196;DHT22;2617;51.006;12.436;2022-08-11T10:42:40;27.90;60.40
5196;DHT22;2617;51.006;12.436;2022-08-11T10:47:47;28.30;59.40
5196;DHT22;2617;51.006;12.436;2022-08-11T10:52:51;27.60;59.00
5196;DHT22;2617;51.006;12.436;2022-08-11T10:57:59;27.50;58.90
5196;DHT22;2617;51.006;12.436;2022-08-11T11:03:07;27.30;59.90
5196;DHT22;2617;51.006;12.436;2022-08-11T11:08:13;26.60;59.70
5196;DHT22;2617;51.006;12.436;2022-08-11T11:13:20;26.90;60.00
5196;DHT22;2617;51.006;12.436;2022-08-11T11:18:30;26.80;60.40
5196;DHT22;2617;51.006;12.436;2022-08-11T11:23:42;26.80;60.40
5196;DHT22;2617;51.006;12.436;2022-08-11T11:29:02;27.10;59.50
5196;DHT22;2617;51.006;12.436;2022-08-11T11:39:45;27.00;59.00
5196;DHT22;2617;51.006;12.436;2022-08-11T11:44:47;27.10;58.80
5196;DHT22;2617;51.006;12.436;2022-08-11T11:49:51;27.80;57.20
5196;DHT22;2617;51.006;12.436;2022-08-11T11:54:54;27.80;57.20
5196;DHT22;2617;51.006;12.436;2022-08-11T11:59:56;27.70;57.50
5196;DHT22;2617;51.006;12.436;2022-08-11T12:05:04;27.60;57.60
5196;DHT22;2617;51.006;12.436;2022-08-11T12:10:07;27.90;58.10
5196;DHT22;2617;51.006;12.436;2022-08-11T12:15:12;27.60;56.80
5196;DHT22;2617;51.006;12.436;2022-08-11T12:20:16;27.60;56.80
5196;DHT22;2617;51.006;12.436;2022-08-11T12:25:17;27.60;57.00
5196;DHT22;2617;51.006;12.436;2022-08-11T12:30:25;27.90;56.70
5196;DHT22;2617;51.006;12.436;2022-08-11T12:35:27;27.90;56.80
5196;DHT22;2617;51.006;12.436;2022-08-11T12:40:31;27.90;56.90
5196;DHT22;2617;51.006;12.436;2022-08-11T12:45:39;27.90;56.90
5196;DHT22;2617;51.006;12.436;2022-08-11T12:50:42;28.00;55.30
5196;DHT22;2617;51.006;12.436;2022-08-11T12:55:50;28.00;55.40
5196;DHT22;2617;51.006;12.436;2022-08-11T13:00:58;28.20;55.80
5196;DHT22;2617;51.006;12.436;2022-08-11T13:06:07;28.00;55.50
5196;DHT22;2617;51.006;12.436;2022-08-11T13:11:09;28.00;55.50
5196;DHT22;2617;51.006;12.436;2022-08-11T13:16:17;28.40;55.00
5196;DHT22;2617;51.006;12.436;2022-08-11T13:21:20;28.50;54.10
5196;DHT22;2617;51.006;12.436;2022-08-11T13:26:22;28.30;54.50
5196;DHT22;2617;51.006;12.436;2022-08-11T13:31:25;28.30;54.40
5196;DHT22;2617;51.006;12.436;2022-08-11T13:36:28;28.30;54.40
5196;DHT22;2617;51.006;12.436;2022-08-11T13:41:30;28.40;54.50
5196;DHT22;2617;51.006;12.436;2022-08-11T13:46:40;28.30;54.70
5196;DHT22;2617;51.006;12.436;2022-08-11T13:51:42;28.30;54.00
5196;DHT22;2617;51.006;12.436;2022-08-11T13:56:46;28.40;55.20
5196;DHT22;2617;51.006;12.436;2022-08-11T14:01:53;28.30;53.80
5196;DHT22;2617;51.006;12.436;2022-08-11T14:06:55;28.20;54.50
5196;DHT22;2617;51.006;12.436;2022-08-11T14:12:02;28.30;53.20
5196;DHT22;2617;51.006;12.436;2022-08-11T14:17:10;28.50;52.20
5196;DHT22;2617;51.006;12.436;2022-08-11T14:22:13;28.50;52.10
5196;DHT22;2617;51.006;12.436;2022-08-11T14:27:15;28.40;51.60
5196;DHT22;2617;51.006;12.436;2022-08-11T14:32:18;28.60;52.70
5196;DHT22;2617;51.006;12.436;2022-08-11T14:37:21;28.40;52.50
5196;DHT22;2617;51.006;12.436;2022-08-11T14:42:23;28.40;53.10
5196;DHT22;2617;51.006;12.436;2022-08-11T14:47:32;28.50;53.00
5196;DHT22;2617;51.006;12.436;2022-08-11T14:52:35;28.50;52.80
5196;DHT22;2617;51.006;12.436;2022-08-11T14:57:38;28.20;52.10
5196;DHT22;2617;51.006;12.436;2022-08-11T15:02:41;28.50;52.50
5196;DHT22;2617;51.006;12.436;2022-08-11T15:07:49;28.50;51.90
5196;DHT22;2617;51.006;12.436;2022-08-11T15:12:52;28.50;51.40
5196;DHT22;2617;51.006;12.436;2022-08-11T15:17:58;28.30;52.30
5196;DHT22;2617;51.006;12.436;2022-08-11T15:22:59;28.30;52.30
5196;DHT22;2617;51.006;12.436;2022-08-11T15:28:08;28.40;51.60
5196;DHT22;2617;51.006;12.436;2022-08-11T15:33:16;28.30;51.70
5196;DHT22;2617;51.006;12.436;2022-08-11T15:38:23;28.30;52.40
5196;DHT22;2617;51.006;12.436;2022-08-11T15:43:30;28.60;51.70
5196;DHT22;2617;51.006;12.436;2022-08-11T15:48:43;28.50;50.70
5196;DHT22;2617;51.006;12.436;2022-08-11T15:53:46;28.40;50.50
5196;DHT22;2617;51.006;12.436;2022-08-11T15:58:49;28.20;51.20
5196;DHT22;2617;51.006;12.436;2022-08-11T16:04:00;27.90;52.10
5196;DHT22;2617;51.006;12.436;2022-08-11T16:09:05;27.90;52.30
5196;DHT22;2617;51.006;12.436;2022-08-11T16:14:07;27.90;51.30
5196;DHT22;2617;51.006;12.436;2022-08-11T16:19:15;27.90;50.90
5196;DHT22;2617;51.006;12.436;2022-08-11T16:24:18;27.90;50.30
5196;DHT22;2617;51.006;12.436;2022-08-11T16:29:20;27.80;50.30
5196;DHT22;2617;51.006;12.436;2022-08-11T16:34:22;27.80;49.30
5196;DHT22;2617;51.006;12.436;2022-08-11T16:39:31;27.80;49.70
5196;DHT22;2617;51.006;12.436;2022-08-11T16:44:33;27.80;49.70
5196;DHT22;2617;51.006;12.436;2022-08-11T16:49:43;27.50;49.70
5196;DHT22;2617;51.006;12.436;2022-08-11T16:54:46;27.30;50.50
5196;DHT22;2617;51.006;12.436;2022-08-11T16:59:48;27.30;50.50
5196;DHT22;2617;51.006;12.436;2022-08-11T17:04:52;27.30;50.70
5196;DHT22;2617;51.006;12.436;2022-08-11T17:10:00;27.30;50.70
5196;DHT22;2617;51.006;12.436;2022-08-11T17:15:10;27.30;50.40
5196;DHT22;2617;51.006;12.436;2022-08-11T17:20:13;27.10;49.80
5196;DHT22;2617;51.006;12.436;2022-08-11T17:25:16;26.90;49.40
5196;DHT22;2617;51.006;12.436;2022-08-11T17:30:18;26.90;49.30
5196;DHT22;2617;51.006;12.436;2022-08-11T17:35:22;26.60;49.20
5196;DHT22;2617;51.006;12.436;2022-08-11T17:40:33;26.60;49.10
5196;DHT22;2617;51.006;12.436;2022-08-11T17:45:34;26.50;49.30
5196;DHT22;2617;51.006;12.436;2022-08-11T17:50:42;26.30;49.00
5196;DHT22;2617;51.006;12.436;2022-08-11T17:55:46;26.00;49.50
5196;DHT22;2617;51.006;12.436;2022-08-11T18:00:53;25.70;50.10
5196;DHT22;2617;51.006;12.436;2022-08-11T18:05:59;25.30;50.60
5196;DHT22;2617;51.006;12.436;2022-08-11T18:11:00;25.30;50.60
5196;DHT22;2617;51.006;12.436;2022-08-11T18:16:08;25.10;51.00
5196;DHT22;2617;51.006;12.436;2022-08-11T18:21:17;24.60;51.90
5196;DHT22;2617;51.006;12.436;2022-08-11T18:26:25;24.60;51.90
5196;DHT22;2617;51.006;12.436;2022-08-11T18:31:35;24.40;52.30
5196;DHT22;2617;51.006;12.436;2022-08-11T18:36:44;24.20;52.80
5196;DHT22;2617;51.006;12.436;2022-08-11T18:41:51;23.90;53.20
5196;DHT22;2617;51.006;12.436;2022-08-11T18:47:01;23.50;54.00
5196;DHT22;2617;51.006;12.436;2022-08-11T18:52:08;23.50;54.00
5196;DHT22;2617;51.006;12.436;2022-08-11T18:57:17;23.30;54.30
5196;DHT22;2617;51.006;12.436;2022-08-11T19:02:24;23.10;54.80
5196;DHT22;2617;51.006;12.436;2022-08-11T19:07:32;23.00;55.30
5196;DHT22;2617;51.006;12.436;2022-08-11T19:12:41;22.60;56.10
5196;DHT22;2617;51.006;12.436;2022-08-11T19:17:49;22.60;56.10
5196;DHT22;2617;51.006;12.436;2022-08-11T19:22:57;22.40;56.40
5196;DHT22;2617;51.006;12.436;2022-08-11T19:28:05;22.30;57.10
5196;DHT22;2617;51.006;12.436;2022-08-11T19:33:13;22.10;58.00
5196;DHT22;2617;51.006;12.436;2022-08-11T19:38:21;21.90;58.90
5196;DHT22;2617;51.006;12.436;2022-08-11T19:43:29;21.70;59.10
5196;DHT22;2617;51.006;12.436;2022-08-11T19:48:37;21.40;60.80
5196;DHT22;2617;51.006;12.436;2022-08-11T19:53:46;21.30;60.60
5196;DHT22;2617;51.006;12.436;2022-08-11T19:58:53;20.90;63.70
5196;DHT22;2617;51.006;12.436;2022-08-11T20:04:02;20.90;63.70
5196;DHT22;2617;51.006;12.436;2022-08-11T20:09:10;20.70;65.20
5196;DHT22;2617;51.006;12.436;2022-08-11T20:14:19;20.50;66.20
5196;DHT22;2617;51.006;12.436;2022-08-11T20:19:26;20.30;66.60
5196;DHT22;2617;51.006;12.436;2022-08-11T20:24:35;20.10;66.80
5196;DHT22;2617;51.006;12.436;2022-08-11T20:29:43;19.70;68.60
5196;DHT22;2617;51.006;12.436;2022-08-11T20:34:51;19.60;70.10
5196;DHT22;2617;51.006;12.436;2022-08-11T20:39:59;19.60;70.00
5196;DHT22;2617;51.006;12.436;2022-08-11T20:45:08;19.20;72.00
5196;DHT22;2617;51.006;12.436;2022-08-11T20:50:17;19.10;72.90
5196;DHT22;2617;51.006;12.436;2022-08-11T20:55:26;18.90;73.50
5196;DHT22;2617;51.006;12.436;2022-08-11T21:00:34;18.90;73.50
5196;DHT22;2617;51.006;12.436;2022-08-11T21:05:42;18.90;74.00
5196;DHT22;2617;51.006;12.436;2022-08-11T21:10:50;18.70;74.00
5196;DHT22;2617;51.006;12.436;2022-08-11T21:16:01;18.70;73.90
5196;DHT22;2617;51.006;12.436;2022-08-11T21:21:07;18.60;74.30
5196;DHT22;2617;51.006;12.436;2022-08-11T21:26:14;18.50;74.60
5196;DHT22;2617;51.006;12.436;2022-08-11T21:31:23;18.40;75.30
5196;DHT22;2617;51.006;12.436;2022-08-11T21:36:30;18.40;75.80
5196;DHT22;2617;51.006;12.436;2022-08-11T21:41:38;18.20;76.20
5196;DHT22;2617;51.006;12.436;2022-08-11T21:46:47;18.20;77.30
5196;DHT22;2617;51.006;12.436;2022-08-11T21:51:55;18.10;77.20
5196;DHT22;2617;51.006;12.436;2022-08-11T21:57:03;18.00;77.00
5196;DHT22;2617;51.006;12.436;2022-08-11T22:02:11;18.00;77.40
5196;DHT22;2617;51.006;12.436;2022-08-11T22:07:20;17.90;77.70
5196;DHT22;2617;51.006;12.436;2022-08-11T22:12:27;17.70;78.00
5196;DHT22;2617;51.006;12.436;2022-08-11T22:17:35;17.70;78.30
5196;DHT22;2617;51.006;12.436;2022-08-11T22:22:43;17.60;79.50
5196;DHT22;2617;51.006;12.436;2022-08-11T22:27:51;17.40;80.50
5196;DHT22;2617;51.006;12.436;2022-08-11T22:33:00;17.30;82.40
5196;DHT22;2617;51.006;12.436;2022-08-11T22:38:07;17.10;83.90
5196;DHT22;2617;51.006;12.436;2022-08-11T22:43:16;16.80;86.60
5196;DHT22;2617;51.006;12.436;2022-08-11T22:48:27;16.70;87.40
5196;DHT22;2617;51.006;12.436;2022-08-11T22:53:33;16.60;87.20
5196;DHT22;2617;51.006;12.436;2022-08-11T22:58:42;16.30;88.80
5196;DHT22;2617;51.006;12.436;2022-08-11T23:03:51;16.20;90.00
5196;DHT22;2617;51.006;12.436;2022-08-11T23:08:59;16.20;89.90
5196;DHT22;2617;51.006;12.436;2022-08-11T23:14:07;16.00;90.30
5196;DHT22;2617;51.006;12.436;2022-08-11T23:19:15;15.90;90.50
5196;DHT22;2617;51.006;12.436;2022-08-11T23:24:23;15.70;91.10
5196;DHT22;2617;51.006;12.436;2022-08-11T23:29:31;15.60;91.30
5196;DHT22;2617;51.006;12.436;2022-08-11T23:34:40;15.40;92.10
5196;DHT22;2617;51.006;12.436;2022-08-11T23:39:47;15.30;92.00
5196;DHT22;2617;51.006;12.436;2022-08-11T23:44:55;15.30;92.60
5196;DHT22;2617;51.006;12.436;2022-08-11T23:50:03;15.20;93.20
5196;DHT22;2617;51.006;12.436;2022-08-11T23:55:12;15.10;93.70
